Augusta, Michigan
Current Conditions -  °F | °C
As of 3:53 PM on Thursday 27 Nov 2014 (Local Time) from KBTL Reporting Station
Overcast Overcast  
Wind Chill: 21°   Ceiling: 3600
Heat Index: 30°   Visibility: 9mi
Dew Point: 23°   Wind: 10mph
Humidity: 75%   Direction: 320°NW
Pressure: 30.22"   Gusts: NA
Location:  42.34°N, 85.35°W
Report Text: KBTL 272053Z 32009KT 9SM FEW022 BKN036 OVC045 M01/M05 A3022 RMK AO2 SNB09E20B27E50 SLP245 P0001 60001 T10111050 51013 $
Loading
Personal Weather Stations






























Interactive Weather Map New forecast layout! Learn more

10-Day Weather Forecast

Advertisements
Track Severe Weather on mobile